Time;durP1;ratioP1;P1;durP2;ratioP2;P2;SDS_P1;SDS_P2;PMS_P1;PMS_P2;Temp;Humidity;BMP_temperature;BMP_pressure;BME280_temperature;BME280_humidity;BME280_pressure;Samples;Min_cycle;Max_cycle;Signal;HPM_P1;HPM_P2
2021/03/22 00:01:04;;;;;;;2.10;1.90;;;20.10;20.30;;;;;;5095061;28;20416;-49
2021/03/22 00:03:30;;;;;;;1.63;1.52;;;20.10;20.30;;;;;;5095507;28;20191;-50
2021/03/22 00:05:56;;;;;;;3.23;1.80;;;20.10;20.30;;;;;;5095232;28;20150;-49
2021/03/22 00:08:25;;;;;;;2.72;1.88;;;20.10;20.30;;;;;;5095196;28;20150;-49
2021/03/22 00:10:52;;;;;;;1.95;1.85;;;20.10;20.30;;;;;;5095121;28;20190;-49
2021/03/22 00:13:20;;;;;;;3.30;1.27;;;20.10;20.30;;;;;;5095160;28;20138;-50
2021/03/22 00:15:53;;;;;;;1.90;1.70;;;20.10;20.30;;;;;;5094605;28;20149;-50
2021/03/22 00:18:21;;;;;;;1.70;1.50;;;20.10;20.30;;;;;;5095009;28;20158;-50
2021/03/22 00:20:47;;;;;;;2.00;1.73;;;20.10;20.30;;;;;;5094996;28;20154;-49
2021/03/22 00:23:13;;;;;;;1.85;1.73;;;20.10;20.80;;;;;;5095014;28;20169;-49
2021/03/22 00:25:39;;;;;;;1.80;1.70;;;20.10;20.30;;;;;;5095051;28;20616;-50
2021/03/22 00:28:05;;;;;;;2.10;2.00;;;20.10;20.30;;;;;;5094659;28;20456;-50
2021/03/22 00:30:35;;;;;;;2.20;1.60;;;20.10;20.30;;;;;;5093986;28;21067;-49
2021/03/22 00:33:02;;;;;;;1.42;1.33;;;20.10;20.30;;;;;;5094790;28;20244;-50
2021/03/22 00:35:33;;;;;;;1.65;1.55;;;20.10;20.30;;;;;;5093723;28;20154;-49
2021/03/22 00:38:02;;;;;;;2.08;1.67;;;20.10;20.30;;;;;;5094640;28;20589;-50
2021/03/22 00:40:33;;;;;;;2.15;1.90;;;20.10;20.30;;;;;;5094000;28;20604;-50
2021/03/22 00:42:58;;;;;;;2.50;1.85;;;20.10;20.30;;;;;;5095038;28;20601;-48
2021/03/22 00:45:25;;;;;;;1.57;1.47;;;20.00;20.20;;;;;;5092507;28;20173;-50
2021/03/22 00:47:54;;;;;;;3.05;1.73;;;20.10;20.80;;;;;;5094351;28;20275;-49
2021/03/22 00:50:52;;;;;;;1.60;1.50;;;20.10;20.30;;;;;;5094206;28;20254;-50
2021/03/22 00:53:18;;;;;;;1.88;1.65;;;20.10;20.30;;;;;;5040542;28;20192;-50
2021/03/22 00:55:44;;;;;;;1.47;1.37;;;20.10;20.30;;;;;;5093961;28;20158;-49
2021/03/22 00:58:11;;;;;;;1.40;1.30;;;20.10;20.30;;;;;;5094048;28;20158;-50
2021/03/22 01:00:46;;;;;;;2.05;1.55;;;20.10;20.30;;;;;;5092673;28;20154;-50
2021/03/22 01:03:16;;;;;;;1.75;1.65;;;20.10;20.30;;;;;;5092859;28;20210;-49
2021/03/22 01:05:41;;;;;;;2.78;1.65;;;20.10;20.30;;;;;;5093905;28;20164;-50
2021/03/22 01:08:08;;;;;;;1.80;1.70;;;20.10;20.30;;;;;;5092821;28;20725;-50
2021/03/22 01:10:43;;;;;;;2.10;1.95;;;20.10;20.40;;;;;;5093695;28;20648;-50
2021/03/22 01:13:52;;;;;;;2.28;2.08;;;20.10;20.30;;;;;;5093866;28;20305;-50
2021/03/22 01:16:32;;;;;;;2.03;1.70;;;20.10;20.30;;;;;;5073331;28;20178;-50
2021/03/22 01:18:59;;;;;;;1.60;1.50;;;20.10;20.30;;;;;;5093790;28;20160;-50
2021/03/22 01:21:34;;;;;;;2.15;1.88;;;20.10;20.30;;;;;;5093762;28;20162;-50
2021/03/22 01:24:01;;;;;;;2.20;1.90;;;20.00;20.20;;;;;;5093589;28;20211;-50
2021/03/22 01:26:30;;;;;;;2.67;1.90;;;20.00;20.40;;;;;;5093422;28;20504;-50
2021/03/22 01:28:56;;;;;;;1.63;1.50;;;20.00;20.20;;;;;;5092960;28;20723;-50
2021/03/22 01:31:26;;;;;;;2.38;1.83;;;20.00;20.20;;;;;;5092440;28;20219;-49
2021/03/22 01:33:54;;;;;;;2.00;1.83;;;20.00;20.20;;;;;;5092289;28;20150;-50
2021/03/22 01:36:24;;;;;;;1.70;1.60;;;20.00;20.20;;;;;;5092069;28;20677;-50
2021/03/22 01:38:51;;;;;;;2.00;1.80;;;20.00;20.20;;;;;;5093419;28;20234;-50
2021/03/22 01:41:38;;;;;;;2.08;1.60;;;20.00;20.20;;;;;;5092056;28;20644;-49
2021/03/22 01:44:24;;;;;;;1.75;1.65;;;20.00;20.20;;;;;;5092623;28;20154;-50
2021/03/22 01:46:55;;;;;;;1.77;1.60;;;20.00;20.20;;;;;;5093102;28;20235;-49
2021/03/22 01:49:23;;;;;;;1.38;1.27;;;20.00;20.20;;;;;;5093127;28;20178;-51
2021/03/22 01:51:50;;;;;;;1.90;1.80;;;20.00;20.20;;;;;;5092065;28;20169;-50
2021/03/22 01:54:16;;;;;;;1.50;1.40;;;20.00;20.20;;;;;;5093120;28;20195;-50
2021/03/22 01:56:57;;;;;;;3.92;2.03;;;20.00;20.20;;;;;;5093096;28;20519;-50
2021/03/22 01:59:29;;;;;;;2.13;1.60;;;20.00;20.80;;;;;;5091304;28;20173;-49
2021/03/22 02:02:00;;;;;;;2.38;2.17;;;20.00;20.20;;;;;;5093498;28;20180;-49
2021/03/22 02:04:28;;;;;;;2.22;2.13;;;20.00;20.20;;;;;;5093054;28;20166;-50
2021/03/22 02:06:54;;;;;;;1.77;1.60;;;20.00;20.20;;;;;;5093299;28;20158;-49
2021/03/22 02:09:22;;;;;;;1.87;1.77;;;20.00;20.30;;;;;;5091733;28;20189;-49
2021/03/22 02:11:49;;;;;;;1.95;1.55;;;20.00;20.20;;;;;;5093219;28;20154;-51
2021/03/22 02:14:14;;;;;;;1.58;1.48;;;20.00;20.20;;;;;;5074439;28;20299;-49
2021/03/22 02:16:52;;;;;;;1.60;1.50;;;20.00;20.20;;;;;;5093446;28;20241;-49
2021/03/22 02:19:51;;;;;;;1.80;1.70;;;20.00;20.20;;;;;;5092958;28;20384;-50
2021/03/22 02:23:00;;;;;;;1.52;1.42;;;20.00;20.20;;;;;;5091583;28;20616;-50
2021/03/22 02:25:55;;;;;;;1.85;1.48;;;20.00;20.20;;;;;;5092669;28;20252;-51
2021/03/22 02:28:23;;;;;;;1.60;1.50;;;20.00;20.20;;;;;;5091474;28;20572;-48
2021/03/22 02:31:36;;;;;;;1.50;1.40;;;20.00;20.20;;;;;;5092412;28;20207;-50
2021/03/22 02:34:32;;;;;;;2.00;1.90;;;20.00;20.20;;;;;;5058647;28;20189;-50
2021/03/22 02:37:10;;;;;;;2.05;1.85;;;20.00;20.20;;;;;;5093073;28;20256;-49
2021/03/22 02:39:44;;;;;;;2.30;1.92;;;20.00;20.20;;;;;;5092818;28;20169;-51
2021/03/22 02:42:11;;;;;;;1.70;1.60;;;20.00;20.20;;;;;;5092717;28;20501;-49
2021/03/22 02:44:38;;;;;;;2.03;1.80;;;19.70;20.00;;;;;;5092387;28;20165;-49
2021/03/22 02:47:09;;;;;;;1.77;1.67;;;20.00;20.20;;;;;;5093249;28;20166;-49
2021/03/22 02:49:39;;;;;;;2.35;1.80;;;20.00;20.20;;;;;;5092632;28;20656;-49
2021/03/22 02:52:11;;;;;;;1.77;1.67;;;19.90;20.20;;;;;;5091452;28;20168;-50
2021/03/22 02:55:03;;;;;;;1.65;1.55;;;20.00;20.20;;;;;;5092571;28;20631;-50
2021/03/22 02:57:50;;;;;;;1.70;1.58;;;19.90;20.20;;;;;;5092813;28;20154;-49
2021/03/22 03:00:20;;;;;;;1.30;1.20;;;20.00;20.20;;;;;;5095140;28;20153;-50
2021/03/22 03:02:48;;;;;;;1.48;1.38;;;20.00;20.20;;;;;;5096517;28;20169;-50
2021/03/22 03:05:20;;;;;;;2.08;1.50;;;19.90;20.20;;;;;;5096300;28;20684;-50
2021/03/22 03:07:46;;;;;;;2.05;1.88;;;20.00;20.20;;;;;;5096541;28;20162;-50
2021/03/22 03:10:16;;;;;;;2.08;1.80;;;20.00;20.20;;;;;;5096049;28;20269;-50
2021/03/22 03:12:42;;;;;;;1.95;1.67;;;20.00;20.20;;;;;;5095104;28;20219;-50
2021/03/22 03:15:09;;;;;;;1.60;1.50;;;20.00;20.20;;;;;;5095820;28;20608;-49
2021/03/22 03:17:35;;;;;;;2.00;1.60;;;19.90;20.20;;;;;;5096255;28;20601;-50
2021/03/22 03:20:04;;;;;;;1.90;1.80;;;19.90;20.20;;;;;;5094809;28;20252;-49
2021/03/22 03:22:30;;;;;;;1.85;1.65;;;19.90;20.20;;;;;;5096168;28;20165;-50
2021/03/22 03:24:55;;;;;;;2.07;1.87;;;19.90;20.20;;;;;;5094733;28;20161;-49
2021/03/22 03:27:25;;;;;;;1.73;1.37;;;19.90;20.20;;;;;;5095909;28;20447;-49
2021/03/22 03:29:50;;;;;;;1.98;1.83;;;19.90;20.20;;;;;;5095316;28;20232;-50
2021/03/22 03:32:20;;;;;;;2.67;2.00;;;21.10;21.00;;;;;;5094604;28;20189;-50
2021/03/22 03:34:46;;;;;;;1.60;1.50;;;19.90;20.20;;;;;;5095691;28;20157;-50
2021/03/22 03:37:12;;;;;;;1.98;1.70;;;19.90;20.20;;;;;;5095984;28;20150;-49
2021/03/22 03:39:39;;;;;;;1.30;1.20;;;19.90;20.20;;;;;;5095663;28;20238;-50
2021/03/22 03:42:06;;;;;;;2.25;1.55;;;19.90;20.20;;;;;;5095780;28;20487;-50
2021/03/22 03:44:32;;;;;;;1.52;1.42;;;19.90;20.20;;;;;;5093890;28;20253;-50
2021/03/22 03:47:00;;;;;;;1.90;1.80;;;19.90;20.20;;;;;;5095881;28;20177;-50
2021/03/22 03:49:26;;;;;;;2.08;1.67;;;19.90;20.20;;;;;;5095409;28;20520;-49
2021/03/22 03:51:51;;;;;;;2.07;1.97;;;19.90;20.20;;;;;;5095668;28;20241;-49
2021/03/22 03:54:17;;;;;;;2.17;1.70;;;19.90;20.20;;;;;;5095220;28;20605;-49
2021/03/22 03:56:42;;;;;;;2.20;1.87;;;19.90;20.20;;;;;;5095450;28;20166;-51
2021/03/22 03:59:09;;;;;;;1.80;1.50;;;19.90;20.20;;;;;;5093583;28;20178;-49
2021/03/22 04:01:35;;;;;;;1.83;1.63;;;19.90;20.20;;;;;;5088539;28;20182;-50
2021/03/22 04:04:02;;;;;;;1.65;1.55;;;19.90;20.20;;;;;;5093835;28;20161;-50
2021/03/22 04:06:30;;;;;;;1.65;1.25;;;19.90;20.20;;;;;;5095282;28;20157;-50
2021/03/22 04:08:59;;;;;;;1.60;1.50;;;19.90;20.20;;;;;;5095017;28;20592;-52
2021/03/22 04:11:27;;;;;;;1.80;1.60;;;19.90;20.20;;;;;;5095258;28;20157;-50
2021/03/22 04:13:57;;;;;;;1.67;1.58;;;19.90;20.20;;;;;;5093764;28;20256;-50
2021/03/22 04:16:25;;;;;;;1.63;1.45;;;19.90;20.20;;;;;;5095068;28;20154;-49
2021/03/22 04:18:56;;;;;;;2.10;1.90;;;19.90;20.20;;;;;;5094952;28;20153;-50
2021/03/22 04:21:29;;;;;;;2.15;1.80;;;19.90;20.20;;;;;;5095043;28;20237;-50
2021/03/22 04:23:56;;;;;;;1.60;1.50;;;19.90;20.20;;;;;;5094923;28;20161;-50
2021/03/22 04:26:22;;;;;;;1.60;1.50;;;19.90;20.20;;;;;;5093238;28;20222;-50
2021/03/22 04:28:48;;;;;;;1.85;1.75;;;18.80;19.40;;;;;;5094904;28;20158;-50
2021/03/22 04:31:18;;;;;;;1.40;1.30;;;19.80;20.10;;;;;;5094499;28;20530;-50
2021/03/22 04:33:45;;;;;;;2.22;2.03;;;19.90;20.20;;;;;;5094742;28;20173;-51
2021/03/22 04:36:11;;;;;;;1.42;1.33;;;19.90;20.20;;;;;;5094379;28;20174;-50
2021/03/22 04:38:37;;;;;;;1.60;1.50;;;19.90;20.20;;;;;;5094672;28;20164;-50
2021/03/22 04:41:04;;;;;;;1.70;1.60;;;19.80;20.10;;;;;;5094584;28;20158;-49
2021/03/22 04:43:29;;;;;;;2.00;1.90;;;19.80;20.10;;;;;;5094730;28;20165;-50
2021/03/22 04:45:55;;;;;;;4.07;1.90;;;19.80;20.10;;;;;;5094015;28;20239;-50
2021/03/22 04:48:23;;;;;;;1.63;1.53;;;19.80;20.10;;;;;;5093234;28;20226;-51
2021/03/22 04:50:49;;;;;;;1.70;1.60;;;19.80;20.10;;;;;;5093041;28;20186;-49
2021/03/22 04:53:15;;;;;;;1.50;1.40;;;19.80;20.10;;;;;;5094401;28;20561;-50
2021/03/22 04:55:40;;;;;;;1.37;1.27;;;19.80;20.10;;;;;;5075912;28;20207;-50
2021/03/22 04:58:06;;;;;;;1.70;1.60;;;19.80;20.60;;;;;;5094235;28;20208;-50
2021/03/22 05:00:37;;;;;;;1.87;1.67;;;19.80;20.10;;;;;;5092374;28;20166;-50
2021/03/22 05:03:03;;;;;;;1.55;1.45;;;19.80;20.10;;;;;;5094203;28;20217;-50
2021/03/22 05:05:31;;;;;;;1.70;1.60;;;19.80;20.10;;;;;;5093942;28;20631;-50
2021/03/22 05:07:57;;;;;;;2.55;1.83;;;19.80;20.10;;;;;;5094292;28;20162;-50
2021/03/22 05:10:28;;;;;;;1.70;1.50;;;19.80;20.10;;;;;;5094012;28;20190;-50
2021/03/22 05:12:54;;;;;;;1.67;1.50;;;19.80;20.10;;;;;;5094308;28;20176;-50
2021/03/22 05:15:21;;;;;;;1.93;1.27;;;19.80;20.10;;;;;;5093524;28;20151;-51
2021/03/22 05:17:47;;;;;;;3.40;2.03;;;19.80;20.10;;;;;;5094044;28;20154;-50
2021/03/22 05:20:30;;;;;;;1.98;1.38;;;19.80;20.10;;;;;;5093687;28;20259;-51
2021/03/22 05:22:57;;;;;;;1.65;1.55;;;19.80;20.10;;;;;;5093785;28;20173;-49
2021/03/22 05:25:24;;;;;;;1.80;1.70;;;19.80;20.10;;;;;;5093745;28;20162;-51
2021/03/22 05:27:50;;;;;;;2.30;1.65;;;19.80;20.10;;;;;;5092558;28;20221;-51
2021/03/22 05:30:16;;;;;;;1.93;1.63;;;19.80;20.10;;;;;;5093226;28;20243;-50
2021/03/22 05:32:42;;;;;;;1.70;1.60;;;19.80;20.10;;;;;;5093763;28;20153;-50
2021/03/22 05:35:12;;;;;;;1.52;1.42;;;19.80;20.10;;;;;;5093470;28;20646;-51
2021/03/22 05:37:38;;;;;;;1.45;1.35;;;19.80;20.10;;;;;;5093725;28;20169;-51
2021/03/22 05:40:07;;;;;;;2.25;1.60;;;19.80;20.10;;;;;;5093508;28;20254;-49
2021/03/22 05:43:02;;;;;;;2.00;1.80;;;19.80;20.10;;;;;;5093492;28;20184;-49
2021/03/22 05:45:39;;;;;;;1.63;1.45;;;19.80;20.10;;;;;;5051497;28;20217;-50
2021/03/22 05:48:28;;;;;;;1.60;1.50;;;19.80;20.10;;;;;;5093547;28;20161;-50
2021/03/22 05:50:59;;;;;;;2.50;1.88;;;19.80;20.10;;;;;;5082532;28;20694;-51
2021/03/22 05:53:36;;;;;;;1.83;1.73;;;19.80;20.10;;;;;;5093502;28;20399;-50
2021/03/22 05:56:09;;;;;;;2.15;1.77;;;19.80;20.10;;;;;;5093049;28;20614;-51
2021/03/22 05:58:43;;;;;;;1.73;1.63;;;19.80;20.10;;;;;;5093325;28;20189;-50
2021/03/22 06:01:36;;;;;;;2.72;2.10;;;19.80;20.10;;;;;;5091318;28;20588;-49
2021/03/22 06:04:24;;;;;;;1.88;1.65;;;19.80;20.10;;;;;;5093325;28;20177;-50
2021/03/22 06:06:52;;;;;;;1.80;1.65;;;19.90;20.20;;;;;;5093211;28;20181;-50
2021/03/22 06:09:42;;;;;;;1.80;1.65;;;19.90;20.20;;;;;;5092064;28;20185;-50
2021/03/22 06:12:27;;;;;;;1.40;1.30;;;19.90;20.20;;;;;;5093219;28;20150;-51
2021/03/22 06:15:02;;;;;;;1.67;1.55;;;19.80;20.10;;;;;;5093060;28;20137;-50
2021/03/22 06:17:38;;;;;;;2.20;1.60;;;19.90;20.20;;;;;;5092910;28;20618;-50
2021/03/22 06:20:18;;;;;;;1.85;1.75;;;19.90;20.20;;;;;;5092909;28;20232;-50
2021/03/22 06:22:45;;;;;;;1.70;1.60;;;19.90;20.20;;;;;;5092266;28;20600;-50
2021/03/22 06:25:18;;;;;;;1.85;1.50;;;19.80;20.10;;;;;;5091679;28;20166;-50
2021/03/22 06:27:50;;;;;;;1.83;1.60;;;19.80;20.10;;;;;;5092994;28;20209;-50
2021/03/22 06:30:26;;;;;;;2.45;2.00;;;19.80;20.10;;;;;;5092251;28;20189;-51
2021/03/22 06:32:59;;;;;;;1.42;1.33;;;19.80;20.10;;;;;;5091753;28;20207;-48
2021/03/22 06:35:31;;;;;;;3.58;1.92;;;19.80;20.10;;;;;;5096225;28;20154;-49
2021/03/22 06:37:57;;;;;;;1.60;1.33;;;19.80;20.10;;;;;;5097133;28;20166;-49
2021/03/22 06:40:25;;;;;;;2.07;1.87;;;19.80;20.10;;;;;;5096758;28;20257;-50
2021/03/22 06:43:16;;;;;;;2.05;1.90;;;19.80;20.10;;;;;;5096810;28;20166;-50
2021/03/22 06:45:48;;;;;;;2.25;1.95;;;19.80;20.10;;;;;;5096510;28;20237;-51
2021/03/22 06:48:24;;;;;;;2.05;1.85;;;19.80;20.10;;;;;;5097031;28;20552;-51
2021/03/22 06:51:14;;;;;;;3.05;1.90;;;19.80;20.10;;;;;;5096557;28;20236;-50
2021/03/22 06:53:45;;;;;;;1.83;1.65;;;19.80;20.10;;;;;;5096530;28;20177;-50
2021/03/22 06:56:39;;;;;;;1.48;1.38;;;19.80;20.10;;;;;;5096373;28;20154;-51
2021/03/22 06:59:18;;;;;;;1.63;1.52;;;19.80;20.10;;;;;;5095943;28;20596;-49
2021/03/22 07:02:18;;;;;;;1.70;1.60;;;19.80;20.10;;;;;;5096409;28;20248;-50
2021/03/22 07:04:44;;;;;;;2.58;1.63;;;19.80;20.10;;;;;;5091753;28;20174;-50
2021/03/22 07:07:23;;;;;;;1.60;1.50;;;19.90;20.20;;;;;;5096544;28;20177;-50
2021/03/22 07:09:54;;;;;;;1.85;1.50;;;19.90;20.20;;;;;;5096005;28;20185;-50
2021/03/22 07:12:37;;;;;;;1.33;1.20;;;19.90;20.20;;;;;;5095947;28;20169;-50
2021/03/22 07:15:32;;;;;;;2.50;1.67;;;19.90;20.20;;;;;;5094357;28;20158;-50
2021/03/22 07:18:10;;;;;;;1.95;1.63;;;19.90;20.20;;;;;;5096062;28;20153;-49
2021/03/22 07:20:36;;;;;;;3.25;1.65;;;19.90;20.20;;;;;;5094557;28;20173;-50
2021/03/22 07:23:29;;;;;;;2.42;1.88;;;19.90;20.20;;;;;;5094611;28;20174;-50
2021/03/22 07:26:03;;;;;;;2.17;1.98;;;19.90;20.20;;;;;;5094034;28;20241;-51
2021/03/22 07:28:41;;;;;;;1.67;1.55;;;19.90;20.20;;;;;;5096020;28;20222;-50
2021/03/22 07:31:45;;;;;;;1.60;1.50;;;19.80;20.10;;;;;;5095177;28;20189;-49
2021/03/22 07:34:29;;;;;;;2.28;2.10;;;19.90;20.20;;;;;;5095546;28;20608;-50
2021/03/22 07:37:31;;;;;;;1.90;1.67;;;19.90;20.20;;;;;;5095765;28;20535;-50
2021/03/22 07:40:34;;;;;;;2.22;1.75;;;19.90;20.20;;;;;;5095572;28;20215;-50
2021/03/22 07:43:19;;;;;;;2.70;1.80;;;19.90;20.20;;;;;;5095521;28;20169;-50
2021/03/22 07:45:53;;;;;;;1.85;1.67;;;19.90;20.20;;;;;;5093178;28;20199;-50
2021/03/22 07:48:40;;;;;;;1.80;1.70;;;19.90;20.20;;;;;;5095275;28;20604;-50
2021/03/22 07:51:09;;;;;;;2.17;1.40;;;19.90;20.20;;;;;;5094963;28;20182;-50
2021/03/22 07:53:44;;;;;;;2.35;2.15;;;19.90;19.70;;;;;;5095471;28;20505;-52
2021/03/22 07:56:15;;;;;;;2.80;1.48;;;20.00;20.20;;;;;;5094807;28;20240;-51
2021/03/22 07:58:59;;;;;;;1.80;1.48;;;19.90;20.20;;;;;;5091142;28;20174;-50
2021/03/22 08:01:31;;;;;;;2.03;1.65;;;19.90;20.20;;;;;;5076114;28;21405;-49
2021/03/22 08:04:31;;;;;;;1.25;1.13;;;20.00;20.20;;;;;;5071752;28;20264;-51
2021/03/22 08:07:08;;;;;;;1.70;1.60;;;20.00;20.20;;;;;;5088584;28;20177;-49
2021/03/22 08:10:03;;;;;;;1.85;1.75;;;20.00;20.20;;;;;;5083733;28;20199;-50
2021/03/22 08:12:48;;;;;;;2.97;1.92;;;20.00;20.20;;;;;;5074453;28;20181;-50
2021/03/22 08:15:14;;;;;;;4.07;1.65;;;20.00;20.20;;;;;;5073628;28;20161;-50
2021/03/22 08:18:15;;;;;;;1.90;1.70;;;20.00;20.20;;;;;;5074524;28;20151;-50
2021/03/22 08:21:21;;;;;;;1.77;1.40;;;20.00;20.20;;;;;;5045025;28;20186;-50
2021/03/22 08:24:11;;;;;;;1.35;1.25;;;20.00;20.20;;;;;;5066381;28;20688;-50
2021/03/22 08:26:53;;;;;;;2.47;1.95;;;20.00;20.30;;;;;;5126732;22;20235;-50
2021/03/22 08:29:22;;;;;;;1.83;1.67;;;20.00;20.20;;;;;;5028359;28;20191;-52
2021/03/22 08:32:05;;;;;;;2.00;1.70;;;20.00;20.20;;;;;;5034218;28;20172;-53
2021/03/22 08:34:43;;;;;;;3.65;1.90;;;20.10;20.30;;;;;;5034750;28;20155;-53
2021/03/22 08:37:15;;;;;;;2.15;1.80;;;20.00;20.20;;;;;;5034564;28;20184;-52
2021/03/22 08:39:58;;;;;;;2.63;2.42;;;20.10;20.30;;;;;;5034190;28;20187;-53
2021/03/22 08:42:27;;;;;;;1.88;1.70;;;20.10;20.30;;;;;;5034332;28;20183;-53
2021/03/22 08:45:22;;;;;;;1.85;1.60;;;20.00;20.20;;;;;;5033973;28;20160;-52
2021/03/22 08:47:47;;;;;;;2.45;1.60;;;18.50;19.20;;;;;;5033699;28;20188;-52
2021/03/22 08:50:17;;;;;;;3.23;1.30;;;20.10;20.30;;;;;;5032992;28;20210;-53
2021/03/22 08:52:57;;;;;;;1.85;1.65;;;20.10;20.30;;;;;;5035124;28;20441;-52
2021/03/22 08:55:27;;;;;;;2.05;1.85;;;20.10;20.30;;;;;;5032791;28;20183;-52
2021/03/22 08:58:02;;;;;;;1.45;1.35;;;20.10;20.30;;;;;;5051522;28;20148;-52
2021/03/22 09:00:55;;;;;;;2.00;1.67;;;20.10;20.30;;;;;;5032735;28;20175;-51
2021/03/22 09:03:31;;;;;;;2.65;1.95;;;20.20;20.30;;;;;;5021382;28;20242;-51
2021/03/22 09:06:17;;;;;;;2.30;1.85;;;20.20;20.40;;;;;;5031735;28;20160;-49
2021/03/22 09:08:54;;;;;;;1.45;1.35;;;20.20;20.40;;;;;;5029651;28;20187;-51
2021/03/22 09:11:28;;;;;;;2.03;1.88;;;20.20;20.40;;;;;;5032402;28;20589;-51
2021/03/22 09:14:28;;;;;;;1.70;1.60;;;20.10;20.30;;;;;;5031137;28;20198;-51
2021/03/22 09:17:02;;;;;;;1.98;1.55;;;20.10;20.30;;;;;;4994433;28;20719;-53
2021/03/22 09:19:41;;;;;;;1.73;1.60;;;20.10;20.30;;;;;;5031850;28;20254;-52
2021/03/22 09:22:06;;;;;;;1.35;1.25;;;20.20;20.40;;;;;;5031970;28;20183;-50
2021/03/22 09:24:43;;;;;;;3.10;1.80;;;20.20;20.40;;;;;;5007386;28;20538;-51
2021/03/22 09:27:20;;;;;;;4.50;1.60;;;20.20;20.40;;;;;;5032025;28;20211;-50
2021/03/22 09:29:50;;;;;;;1.55;1.30;;;20.20;20.40;;;;;;5028496;28;20772;-51
2021/03/22 09:32:25;;;;;;;2.15;1.70;;;20.20;20.40;;;;;;5030435;28;20163;-50
2021/03/22 09:34:59;;;;;;;1.73;1.63;;;20.20;20.40;;;;;;5030563;28;20174;-50
2021/03/22 09:37:53;;;;;;;1.95;1.75;;;20.20;20.40;;;;;;5023778;28;20179;-49
2021/03/22 09:40:19;;;;;;;1.85;1.40;;;20.20;20.40;;;;;;5023111;28;20545;-49
2021/03/22 09:43:08;;;;;;;2.30;1.33;;;20.20;20.40;;;;;;5017044;28;20664;-51
2021/03/22 09:45:50;;;;;;;2.00;1.80;;;20.20;20.40;;;;;;5045152;28;20187;-49
2021/03/22 09:48:16;;;;;;;2.10;1.90;;;20.20;20.30;;;;;;5031031;28;20190;-49
2021/03/22 09:50:44;;;;;;;1.83;1.70;;;20.20;20.30;;;;;;5028887;28;20230;-51
2021/03/22 09:53:19;;;;;;;2.28;1.77;;;20.20;20.30;;;;;;5032735;28;20186;-50
2021/03/22 09:55:55;;;;;;;2.28;2.08;;;20.20;20.20;;;;;;5032436;28;20167;-49
2021/03/22 09:58:39;;;;;;;1.90;1.42;;;20.20;20.20;;;;;;5032147;28;20185;-49
2021/03/22 10:01:30;;;;;;;1.50;1.40;;;20.20;20.20;;;;;;5032739;28;20163;-50
2021/03/22 10:04:19;;;;;;;1.60;1.35;;;20.20;20.20;;;;;;5031836;28;20186;-50
2021/03/22 10:06:55;;;;;;;2.33;1.67;;;20.20;20.10;;;;;;5027816;28;20186;-50
2021/03/22 10:10:01;;;;;;;2.25;1.40;;;20.20;20.10;;;;;;5030756;28;20244;-50
2021/03/22 10:12:35;;;;;;;1.88;1.63;;;20.20;20.10;;;;;;5031032;28;20176;-50
2021/03/22 10:15:10;;;;;;;1.73;1.63;;;20.30;20.10;;;;;;5030004;28;20183;-50
2021/03/22 10:18:00;;;;;;;1.83;1.50;;;20.30;20.10;;;;;;5025797;28;20241;-50
2021/03/22 10:20:37;;;;;;;1.42;1.33;;;20.30;20.00;;;;;;5018970;28;20236;-50
2021/03/22 10:23:26;;;;;;;2.00;1.65;;;20.30;20.00;;;;;;5026452;28;20178;-50
2021/03/22 10:26:19;;;;;;;1.67;1.40;;;20.30;20.00;;;;;;5027300;28;20219;-50
2021/03/22 10:28:44;;;;;;;1.67;1.58;;;20.30;20.00;;;;;;5017219;28;20199;-51
2021/03/22 10:31:37;;;;;;;3.33;1.67;;;20.30;20.00;;;;;;5030756;28;20222;-52
2021/03/22 10:34:03;;;;;;;1.50;1.40;;;20.30;20.10;;;;;;5026998;28;20180;-50
2021/03/22 10:36:35;;;;;;;1.57;1.47;;;20.30;20.10;;;;;;5028622;28;20199;-51
2021/03/22 10:39:02;;;;;;;2.45;1.83;;;20.30;20.10;;;;;;5015128;28;20939;-51
2021/03/22 10:41:35;;;;;;;1.90;1.42;;;20.30;20.10;;;;;;5031708;28;20183;-50
2021/03/22 10:44:23;;;;;;;1.92;1.50;;;20.30;20.10;;;;;;5031037;28;20167;-53
2021/03/22 10:47:06;;;;;;;1.95;1.55;;;20.30;20.10;;;;;;5030679;28;20211;-51
2021/03/22 10:49:31;;;;;;;3.38;1.13;;;20.30;20.00;;;;;;5025360;28;20260;-49
2021/03/22 10:52:01;;;;;;;2.03;1.47;;;20.30;20.10;;;;;;5031395;28;20510;-50
2021/03/22 10:54:42;;;;;;;1.77;1.48;;;20.30;20.10;;;;;;5045306;28;20709;-50
2021/03/22 10:57:23;;;;;;;2.03;1.60;;;20.30;20.10;;;;;;5030727;28;20638;-50
2021/03/22 10:59:57;;;;;;;1.60;1.50;;;20.30;20.10;;;;;;5029896;28;20163;-50
2021/03/22 11:02:34;;;;;;;1.80;1.65;;;20.30;20.10;;;;;;5029423;28;20172;-50
2021/03/22 11:05:07;;;;;;;1.50;1.40;;;20.30;20.10;;;;;;5031389;28;20182;-50
2021/03/22 11:07:32;;;;;;;1.55;1.45;;;20.30;20.70;;;;;;5029393;28;20164;-50
2021/03/22 11:10:11;;;;;;;2.70;1.60;;;20.30;20.00;;;;;;5031744;28;20249;-50
2021/03/22 11:12:40;;;;;;;1.90;1.33;;;20.30;20.10;;;;;;5031759;28;20194;-50
2021/03/22 11:15:20;;;;;;;1.73;1.50;;;20.30;20.10;;;;;;5030712;28;20195;-50
2021/03/22 11:17:48;;;;;;;1.80;1.50;;;20.30;20.10;;;;;;5015845;28;20175;-50
2021/03/22 11:20:18;;;;;;;2.08;1.60;;;20.30;20.00;;;;;;5010610;28;20191;-51
2021/03/22 11:22:47;;;;;;;1.77;1.50;;;20.30;20.10;;;;;;5048141;28;20195;-51
2021/03/22 11:25:31;;;;;;;3.28;1.70;;;20.30;20.00;;;;;;5034145;28;20168;-50
2021/03/22 11:27:59;;;;;;;2.00;1.85;;;20.30;20.00;;;;;;5034275;28;20178;-50
2021/03/22 11:30:32;;;;;;;1.83;1.70;;;20.30;20.00;;;;;;5034408;28;20207;-51
2021/03/22 11:32:58;;;;;;;1.65;1.55;;;20.30;20.00;;;;;;5035577;28;20164;-49
2021/03/22 11:35:28;;;;;;;1.57;1.47;;;20.30;20.00;;;;;;5034864;28;20595;-49
2021/03/22 11:37:59;;;;;;;1.95;1.50;;;20.30;20.00;;;;;;5035030;28;20388;-49
2021/03/22 11:40:27;;;;;;;1.52;1.42;;;20.30;20.00;;;;;;5034726;28;20700;-50
2021/03/22 11:43:13;;;;;;;1.95;1.40;;;20.30;20.00;;;;;;5034159;28;20175;-51
2021/03/22 11:45:41;;;;;;;2.05;1.90;;;20.30;20.00;;;;;;5017954;28;20183;-52
2021/03/22 11:48:19;;;;;;;1.50;1.40;;;20.30;20.00;;;;;;5033057;28;20206;-54
2021/03/22 11:50:59;;;;;;;1.33;1.23;;;19.60;19.50;;;;;;5033793;28;20779;-51
2021/03/22 11:53:25;;;;;;;1.95;1.42;;;20.30;20.00;;;;;;5034831;28;20155;-52
2021/03/22 11:56:18;;;;;;;1.30;1.20;;;20.40;20.10;;;;;;5015701;28;20182;-52
2021/03/22 11:58:45;;;;;;;1.65;1.55;;;20.30;20.00;;;;;;5033956;28;20278;-54
2021/03/22 12:01:16;;;;;;;1.60;1.50;;;20.40;20.00;;;;;;5032781;28;20329;-53
2021/03/22 12:03:44;;;;;;;1.52;1.25;;;20.30;19.90;;;;;;5029097;28;20187;-52
2021/03/22 12:06:20;;;;;;;1.70;1.60;;;20.40;19.90;;;;;;5034381;28;20164;-52
2021/03/22 12:08:48;;;;;;;1.83;1.52;;;20.30;19.90;;;;;;5030332;28;20267;-53
2021/03/22 12:11:23;;;;;;;2.35;1.83;;;20.30;19.90;;;;;;5039502;28;20196;-51
2021/03/22 12:13:56;;;;;;;2.55;1.83;;;20.40;19.90;;;;;;5033622;28;20183;-52
2021/03/22 12:16:30;;;;;;;2.53;1.48;;;20.40;19.90;;;;;;5028022;28;20603;-51
2021/03/22 12:19:07;;;;;;;2.28;1.60;;;20.40;19.90;;;;;;5034197;28;20159;-53
2021/03/22 12:21:35;;;;;;;1.58;1.48;;;20.40;19.90;;;;;;5033857;28;20179;-52
2021/03/22 12:24:01;;;;;;;1.40;1.30;;;20.40;19.90;;;;;;5034135;28;20159;-51
2021/03/22 12:26:29;;;;;;;1.40;1.30;;;20.30;19.80;;;;;;5033279;28;20207;-52
2021/03/22 12:28:56;;;;;;;1.52;1.40;;;20.40;19.90;;;;;;5015480;28;20434;-51
2021/03/22 12:31:28;;;;;;;1.55;1.45;;;20.40;19.90;;;;;;5033323;28;20231;-53
2021/03/22 12:33:59;;;;;;;1.30;1.20;;;20.40;19.90;;;;;;5033172;28;20183;-51
2021/03/22 12:36:25;;;;;;;1.98;1.45;;;20.40;19.90;;;;;;5032738;28;20590;-52
2021/03/22 12:38:51;;;;;;;2.23;1.50;;;20.40;19.90;;;;;;5031769;28;20649;-49
2021/03/22 12:41:37;;;;;;;1.85;1.67;;;20.40;19.90;;;;;;5034874;28;20646;-50
2021/03/22 12:44:03;;;;;;;1.50;1.40;;;20.40;19.90;;;;;;4999412;28;20500;-50
2021/03/22 12:46:30;;;;;;;2.20;2.03;;;20.40;19.90;;;;;;5048750;28;20187;-50
2021/03/22 12:48:55;;;;;;;1.70;1.60;;;20.40;19.90;;;;;;5034181;28;20249;-50
2021/03/22 12:51:21;;;;;;;1.37;1.27;;;20.40;19.90;;;;;;5032942;28;20682;-49
2021/03/22 12:53:47;;;;;;;1.80;1.47;;;20.40;19.90;;;;;;5032814;28;20203;-50
2021/03/22 12:56:13;;;;;;;2.20;1.97;;;20.30;19.90;;;;;;5033196;28;20186;-53
2021/03/22 12:58:39;;;;;;;1.45;1.35;;;20.40;19.90;;;;;;5032838;28;20263;-49
2021/03/22 13:01:05;;;;;;;1.70;1.50;;;20.40;19.90;;;;;;5033028;28;20164;-50
2021/03/22 13:03:31;;;;;;;3.55;1.30;;;20.40;19.90;;;;;;5033582;28;20704;-50
2021/03/22 13:05:57;;;;;;;1.43;1.33;;;20.40;19.90;;;;;;5033049;28;20180;-50
2021/03/22 13:08:26;;;;;;;1.87;1.30;;;20.40;19.90;;;;;;5032476;28;20180;-50
2021/03/22 13:10:52;;;;;;;1.88;1.40;;;20.40;19.90;;;;;;5032778;28;20545;-50
2021/03/22 13:13:18;;;;;;;2.35;1.30;;;20.40;19.90;;;;;;5032113;28;20214;-49
2021/03/22 13:15:47;;;;;;;2.13;1.90;;;20.40;19.90;;;;;;5030402;28;20187;-51
2021/03/22 13:18:34;;;;;;;1.50;1.40;;;20.40;19.90;;;;;;5033465;28;20969;-51
2021/03/22 13:21:09;;;;;;;3.42;1.40;;;20.40;19.90;;;;;;5032176;28;20254;-50
2021/03/22 13:23:36;;;;;;;2.00;1.30;;;20.30;19.80;;;;;;5033215;28;20175;-49